Hlavní strana
METAR-TAF:

METAR-TAF

Letiště :

Kuito, Angola

zeměpisná šířka: 12-24-15S, zeměpisná délka: 16-56-55E, výška: 1712 m

Aktuální stav počasí

Zpráva byla vytvořena před 12 hodinami a 3 minutami, v 15:00 UTC
Severní vítr 5 kt
Teplota 26°C
Vlhkost vzduchu 24%
Tlak 1020 hPa
Viditelnost 10 km a více
Žádná oblačnost pod 1500 m, nevyskytují se cumulonimby.

METAR: FNKU 251500Z 36005KT CAVOK 26/04 Q1020

Čas: 04:03 (03:03 UTC)

Předpověď počasí

Zpráva byla vytvořena před 4 hodinami a 3 minutami, v 23:00 UTC
Předpověď platná od 26 v 00 UTC do 26 v 12 UTC
Viditelnost 10 km a více
Skoro jasno ve výšce 2000 ft
Dočasný
od 26 v 05 UTC do 26 v 09 UTC
Viditelnost 10 km a více
Žádná oblačnost pod 1500 m, nevyskytují se cumulonimby.

TAF: FNKU 252300Z 2600/2612 3005KT 9999 FEW020 TEMPO 2605/2609 CAVOK

Stav a předpovědi počasí z více než 4 000 letišť (zprávy METAR a TAF).

Červené a žluté tečky na mapě představují dostupné meteorologické stanice.

Když kurzor umístíte na tečku, zobrazí se název stanice.

Pak kliknutím zobrazíte stav a předpověď počasí.

Chcete-li změnit mapu, kliknutím na zelené tlačítko se znaménkem +mapu přiblížíte, kliknutím na zelené tlačítko se znaménkem – mapu oddálíte a kliknutím na zelené šipky přejdete na sousední mapy.


METAR-TAF: